Date,TemperatureHighF,TemperatureAvgF,TemperatureLowF,DewpointHighF,DewpointAvgF,DewpointLowF,HumidityHigh,HumidityAvg,HumidityLow,PressureMaxIn,PressureMinIn,WindSpeedMaxMPH,WindSpeedAvgMPH,GustSpeedMaxMPH,PrecipitationSumIn
2013-9-1,84,71,66,73,66,62,87,82,65,29.98,29.86,0,0,0,0.86
2013-9-2,84,73,66,71,66,61,88,80,61,29.98,29.88,0,0,0,0.16
2013-9-3,83,73,65,69,63,60,87,74,50,30.05,29.88,0,0,0,0.01
2013-9-4,80,70,60,66,61,56,85,74,53,30.17,30.04,0,0,0,0.00
2013-9-5,80,70,62,66,61,57,86,73,48,30.19,30.12,0,0,0,0.00
2013-9-6,77,68,60,63,59,55,84,72,53,30.28,30.16,0,0,0,0.00
2013-9-7,77,68,59,65,60,54,85,77,62,30.22,30.05,0,0,0,0.00
2013-9-8,82,71,62,67,62,57,87,75,49,30.07,30.00,0,0,0,0.00
2013-9-9,83,73,64,69,64,59,86,75,55,30.22,30.07,0,0,0,0.00
2013-9-10,83,72,63,69,64,58,87,76,56,30.31,30.21,0,0,0,0.00
2013-9-11,83,73,67,71,66,62,87,78,62,30.28,30.15,0,0,0,0.01
2013-9-12,84,73,66,70,66,62,87,78,58,30.14,29.91,0,0,0,0.00
2013-9-13,78,70,60,65,56,49,85,64,39,29.99,29.87,7,1,0,0.00
2013-9-14,71,61,52,55,50,46,81,68,48,30.21,30.00,8,0,0,0.00
2013-9-15,73,63,52,61,54,47,86,75,58,30.32,30.20,4,0,0,0.00
2013-9-16,81,68,58,63,58,53,87,72,48,30.26,30.14,5,0,0,0.00
2013-9-17,70,64,59,57,53,51,79,68,54,30.39,30.26,7,1,0,0.00
2013-9-18,70,62,56,57,52,49,80,70,57,30.39,30.25,4,0,0,0.00
2013-9-19,74,65,60,63,58,54,84,77,64,30.28,30.16,2,0,0,0.00
2013-9-20,80,69,60,65,61,55,87,77,54,30.17,29.98,2,0,0,0.00
2013-9-21,71,68,63,65,63,59,86,83,79,30.01,29.78,2,0,0,1.74
2013-9-22,70,60,53,59,54,48,87,80,54,30.01,29.80,6,0,0,0.01
2013-9-23,68,60,53,57,51,48,84,75,59,30.16,30.01,4,0,0,0.00
2013-9-24,73,63,56,59,55,51,85,75,54,30.17,30.01,1,0,0,0.00
2013-9-25,68,61,57,59,55,52,86,82,71,30.02,29.95,1,0,0,0.16
2013-9-26,71,62,56,57,53,49,86,74,48,30.14,29.97,8,0,0,0.00
2013-9-27,71,61,52,55,52,48,86,73,52,30.28,30.14,5,0,0,0.01
2013-9-28,68,60,53,55,51,48,85,74,55,30.34,30.25,7,0,0,0.00
2013-9-29,69,60,51,56,52,46,84,76,60,30.28,30.12,2,0,0,0.00
2013-9-30,71,61,52,58,53,47,86,74,51,30.19,30.07,3,0,0,0.00